sensor_id;sensor_type;location;lat;lon;timestamp;P1;durP1;ratioP1;P2;durP2;ratioP2
77040;SDS011;65974;42.664;23.264;2023-02-26T00:00:13;9.65;;;4.07;;
77040;SDS011;65974;42.664;23.264;2023-02-26T00:02:44;4.80;;;3.15;;
77040;SDS011;65974;42.664;23.264;2023-02-26T00:05:12;5.82;;;2.20;;
77040;SDS011;65974;42.664;23.264;2023-02-26T00:07:40;13.05;;;3.03;;
77040;SDS011;65974;42.664;23.264;2023-02-26T00:10:06;6.15;;;3.80;;
77040;SDS011;65974;42.664;23.264;2023-02-26T00:12:34;7.25;;;4.22;;
77040;SDS011;65974;42.664;23.264;2023-02-26T00:15:00;9.48;;;4.18;;
77040;SDS011;65974;42.664;23.264;2023-02-26T00:17:47;6.38;;;2.67;;
77040;SDS011;65974;42.664;23.264;2023-02-26T00:20:22;13.50;;;5.00;;
77040;SDS011;65974;42.664;23.264;2023-02-26T00:22:48;5.47;;;3.28;;
77040;SDS011;65974;42.664;23.264;2023-02-26T00:25:14;7.40;;;4.07;;
77040;SDS011;65974;42.664;23.264;2023-02-26T00:27:39;8.93;;;3.83;;
77040;SDS011;65974;42.664;23.264;2023-02-26T00:30:06;4.15;;;2.40;;
77040;SDS011;65974;42.664;23.264;2023-02-26T00:32:33;10.10;;;3.85;;
77040;SDS011;65974;42.664;23.264;2023-02-26T00:34:59;9.82;;;2.80;;
77040;SDS011;65974;42.664;23.264;2023-02-26T00:40:05;10.52;;;4.88;;
77040;SDS011;65974;42.664;23.264;2023-02-26T00:42:33;10.90;;;3.97;;
77040;SDS011;65974;42.664;23.264;2023-02-26T00:44:59;13.73;;;3.65;;
77040;SDS011;65974;42.664;23.264;2023-02-26T00:55:08;11.25;;;4.95;;
77040;SDS011;65974;42.664;23.264;2023-02-26T00:57:34;9.00;;;2.63;;
77040;SDS011;65974;42.664;23.264;2023-02-26T00:59:59;7.75;;;2.92;;
77040;SDS011;65974;42.664;23.264;2023-02-26T01:02:25;14.55;;;3.60;;
77040;SDS011;65974;42.664;23.264;2023-02-26T01:04:50;11.27;;;3.70;;
77040;SDS011;65974;42.664;23.264;2023-02-26T01:07:17;9.18;;;3.85;;
77040;SDS011;65974;42.664;23.264;2023-02-26T01:09:48;7.90;;;3.75;;
77040;SDS011;65974;42.664;23.264;2023-02-26T01:12:14;8.43;;;2.63;;
77040;SDS011;65974;42.664;23.264;2023-02-26T01:14:41;7.05;;;3.58;;
77040;SDS011;65974;42.664;23.264;2023-02-26T01:27:30;7.05;;;2.67;;
77040;SDS011;65974;42.664;23.264;2023-02-26T01:29:55;11.27;;;4.35;;
77040;SDS011;65974;42.664;23.264;2023-02-26T01:32:43;5.43;;;2.63;;
77040;SDS011;65974;42.664;23.264;2023-02-26T01:38:06;13.95;;;4.63;;
77040;SDS011;65974;42.664;23.264;2023-02-26T01:43:31;11.68;;;3.25;;
77040;SDS011;65974;42.664;23.264;2023-02-26T01:46:13;11.00;;;3.45;;
77040;SDS011;65974;42.664;23.264;2023-02-26T01:48:52;12.00;;;3.25;;
77040;SDS011;65974;42.664;23.264;2023-02-26T01:51:39;13.20;;;3.70;;
77040;SDS011;65974;42.664;23.264;2023-02-26T01:54:05;8.40;;;3.97;;
77040;SDS011;65974;42.664;23.264;2023-02-26T01:56:30;8.90;;;2.70;;
77040;SDS011;65974;42.664;23.264;2023-02-26T01:58:55;7.97;;;2.45;;
77040;SDS011;65974;42.664;23.264;2023-02-26T02:01:22;12.35;;;2.97;;
77040;SDS011;65974;42.664;23.264;2023-02-26T02:03:47;9.93;;;3.33;;
77040;SDS011;65974;42.664;23.264;2023-02-26T02:06:15;8.07;;;4.55;;
77040;SDS011;65974;42.664;23.264;2023-02-26T02:08:46;8.45;;;2.88;;
77040;SDS011;65974;42.664;23.264;2023-02-26T02:11:11;3.42;;;2.35;;
77040;SDS011;65974;42.664;23.264;2023-02-26T02:23:56;6.95;;;2.63;;
77040;SDS011;65974;42.664;23.264;2023-02-26T02:27:05;14.32;;;3.40;;
77040;SDS011;65974;42.664;23.264;2023-02-26T02:29:58;9.52;;;3.25;;
77040;SDS011;65974;42.664;23.264;2023-02-26T02:32:34;5.60;;;2.90;;
77040;SDS011;65974;42.664;23.264;2023-02-26T02:37:40;7.68;;;3.55;;
77040;SDS011;65974;42.664;23.264;2023-02-26T02:40:08;9.25;;;2.83;;
77040;SDS011;65974;42.664;23.264;2023-02-26T02:42:54;8.60;;;3.03;;
77040;SDS011;65974;42.664;23.264;2023-02-26T02:45:26;12.15;;;3.97;;
77040;SDS011;65974;42.664;23.264;2023-02-26T02:48:25;7.78;;;2.50;;
77040;SDS011;65974;42.664;23.264;2023-02-26T02:50:59;7.18;;;2.97;;
77040;SDS011;65974;42.664;23.264;2023-02-26T02:53:30;3.95;;;2.92;;
77040;SDS011;65974;42.664;23.264;2023-02-26T02:56:08;5.63;;;2.38;;
77040;SDS011;65974;42.664;23.264;2023-02-26T02:58:48;6.18;;;2.40;;
77040;SDS011;65974;42.664;23.264;2023-02-26T03:01:25;6.57;;;2.65;;
77040;SDS011;65974;42.664;23.264;2023-02-26T03:03:57;7.00;;;3.05;;
77040;SDS011;65974;42.664;23.264;2023-02-26T03:06:26;9.63;;;4.10;;
77040;SDS011;65974;42.664;23.264;2023-02-26T03:08:52;6.60;;;3.00;;
77040;SDS011;65974;42.664;23.264;2023-02-26T03:11:18;9.10;;;1.95;;
77040;SDS011;65974;42.664;23.264;2023-02-26T03:13:44;13.52;;;2.85;;
77040;SDS011;65974;42.664;23.264;2023-02-26T03:38:50;6.85;;;2.50;;
77040;SDS011;65974;42.664;23.264;2023-02-26T03:41:23;11.48;;;2.95;;
77040;SDS011;65974;42.664;23.264;2023-02-26T03:44:07;7.03;;;2.72;;
77040;SDS011;65974;42.664;23.264;2023-02-26T03:46:41;7.65;;;2.55;;
77040;SDS011;65974;42.664;23.264;2023-02-26T03:49:12;8.20;;;2.92;;
77040;SDS011;65974;42.664;23.264;2023-02-26T03:51:43;7.97;;;3.40;;
77040;SDS011;65974;42.664;23.264;2023-02-26T03:57:12;7.38;;;2.83;;
77040;SDS011;65974;42.664;23.264;2023-02-26T03:59:37;6.30;;;3.15;;
77040;SDS011;65974;42.664;23.264;2023-02-26T04:02:04;13.80;;;3.25;;
77040;SDS011;65974;42.664;23.264;2023-02-26T04:04:43;11.55;;;3.17;;
77040;SDS011;65974;42.664;23.264;2023-02-26T04:07:13;11.40;;;3.85;;
77040;SDS011;65974;42.664;23.264;2023-02-26T04:09:50;7.25;;;3.00;;
77040;SDS011;65974;42.664;23.264;2023-02-26T04:12:23;6.45;;;3.70;;
77040;SDS011;65974;42.664;23.264;2023-02-26T04:14:49;11.25;;;2.90;;
77040;SDS011;65974;42.664;23.264;2023-02-26T04:17:15;8.48;;;2.42;;
77040;SDS011;65974;42.664;23.264;2023-02-26T04:19:41;10.35;;;4.28;;
77040;SDS011;65974;42.664;23.264;2023-02-26T04:22:06;7.18;;;2.58;;
77040;SDS011;65974;42.664;23.264;2023-02-26T04:24:32;15.52;;;3.47;;
77040;SDS011;65974;42.664;23.264;2023-02-26T04:26:57;10.20;;;3.50;;
77040;SDS011;65974;42.664;23.264;2023-02-26T04:29:23;5.38;;;2.17;;
77040;SDS011;65974;42.664;23.264;2023-02-26T04:31:48;10.52;;;3.17;;
77040;SDS011;65974;42.664;23.264;2023-02-26T04:34:13;8.85;;;3.38;;
77040;SDS011;65974;42.664;23.264;2023-02-26T04:36:39;7.18;;;2.67;;
77040;SDS011;65974;42.664;23.264;2023-02-26T04:39:05;7.22;;;3.10;;
77040;SDS011;65974;42.664;23.264;2023-02-26T04:41:30;2.65;;;1.25;;
77040;SDS011;65974;42.664;23.264;2023-02-26T04:43:55;11.95;;;3.05;;
77040;SDS011;65974;42.664;23.264;2023-02-26T04:46:21;12.13;;;2.92;;
77040;SDS011;65974;42.664;23.264;2023-02-26T04:48:46;10.15;;;2.47;;
77040;SDS011;65974;42.664;23.264;2023-02-26T04:51:11;8.18;;;3.03;;
77040;SDS011;65974;42.664;23.264;2023-02-26T04:53:37;8.95;;;2.58;;
77040;SDS011;65974;42.664;23.264;2023-02-26T04:56:02;7.65;;;2.55;;
77040;SDS011;65974;42.664;23.264;2023-02-26T04:58:28;8.75;;;3.17;;
77040;SDS011;65974;42.664;23.264;2023-02-26T05:00:53;10.70;;;2.88;;
77040;SDS011;65974;42.664;23.264;2023-02-26T05:03:19;9.32;;;2.47;;
77040;SDS011;65974;42.664;23.264;2023-02-26T05:05:45;10.20;;;2.38;;
77040;SDS011;65974;42.664;23.264;2023-02-26T05:08:10;12.85;;;3.15;;
77040;SDS011;65974;42.664;23.264;2023-02-26T05:10:36;10.07;;;3.30;;
77040;SDS011;65974;42.664;23.264;2023-02-26T05:13:02;10.85;;;3.15;;
77040;SDS011;65974;42.664;23.264;2023-02-26T05:15:27;8.63;;;3.15;;
77040;SDS011;65974;42.664;23.264;2023-02-26T05:17:53;4.30;;;2.22;;
77040;SDS011;65974;42.664;23.264;2023-02-26T05:20:18;6.90;;;2.55;;
77040;SDS011;65974;42.664;23.264;2023-02-26T05:22:43;13.68;;;3.13;;
77040;SDS011;65974;42.664;23.264;2023-02-26T05:25:09;20.00;;;2.63;;
77040;SDS011;65974;42.664;23.264;2023-02-26T05:27:38;8.40;;;3.25;;
77040;SDS011;65974;42.664;23.264;2023-02-26T05:30:05;10.52;;;2.60;;
77040;SDS011;65974;42.664;23.264;2023-02-26T05:32:31;10.35;;;3.08;;
77040;SDS011;65974;42.664;23.264;2023-02-26T05:34:56;8.00;;;3.22;;
77040;SDS011;65974;42.664;23.264;2023-02-26T05:37:22;12.18;;;3.15;;
77040;SDS011;65974;42.664;23.264;2023-02-26T05:39:47;11.70;;;3.75;;
77040;SDS011;65974;42.664;23.264;2023-02-26T05:42:12;14.93;;;3.17;;
77040;SDS011;65974;42.664;23.264;2023-02-26T05:44:38;11.68;;;4.00;;
77040;SDS011;65974;42.664;23.264;2023-02-26T05:47:03;12.60;;;3.10;;
77040;SDS011;65974;42.664;23.264;2023-02-26T05:49:29;8.20;;;3.33;;
77040;SDS011;65974;42.664;23.264;2023-02-26T05:51:54;11.23;;;2.72;;
77040;SDS011;65974;42.664;23.264;2023-02-26T05:54:19;9.10;;;2.97;;
77040;SDS011;65974;42.664;23.264;2023-02-26T05:56:46;12.25;;;3.03;;
77040;SDS011;65974;42.664;23.264;2023-02-26T05:59:11;8.35;;;2.85;;
77040;SDS011;65974;42.664;23.264;2023-02-26T06:01:36;9.68;;;3.05;;
77040;SDS011;65974;42.664;23.264;2023-02-26T06:04:03;11.35;;;2.80;;
77040;SDS011;65974;42.664;23.264;2023-02-26T06:06:29;9.57;;;2.88;;
77040;SDS011;65974;42.664;23.264;2023-02-26T06:08:55;9.93;;;3.28;;
77040;SDS011;65974;42.664;23.264;2023-02-26T06:11:20;8.80;;;2.92;;
77040;SDS011;65974;42.664;23.264;2023-02-26T06:13:46;17.13;;;2.67;;
77040;SDS011;65974;42.664;23.264;2023-02-26T06:16:11;8.35;;;2.40;;
77040;SDS011;65974;42.664;23.264;2023-02-26T06:18:37;12.32;;;3.08;;
77040;SDS011;65974;42.664;23.264;2023-02-26T06:21:02;8.02;;;2.08;;
77040;SDS011;65974;42.664;23.264;2023-02-26T06:23:28;6.25;;;2.65;;
77040;SDS011;65974;42.664;23.264;2023-02-26T06:25:53;9.30;;;3.22;;
77040;SDS011;65974;42.664;23.264;2023-02-26T06:28:19;5.68;;;2.47;;
77040;SDS011;65974;42.664;23.264;2023-02-26T06:30:44;5.30;;;1.55;;
77040;SDS011;65974;42.664;23.264;2023-02-26T06:33:10;7.88;;;3.42;;
77040;SDS011;65974;42.664;23.264;2023-02-26T06:35:36;12.60;;;2.70;;
77040;SDS011;65974;42.664;23.264;2023-02-26T06:38:02;9.00;;;3.30;;
77040;SDS011;65974;42.664;23.264;2023-02-26T06:40:27;8.25;;;3.42;;
77040;SDS011;65974;42.664;23.264;2023-02-26T06:42:53;8.27;;;2.35;;
77040;SDS011;65974;42.664;23.264;2023-02-26T06:45:18;12.23;;;3.22;;
77040;SDS011;65974;42.664;23.264;2023-02-26T06:47:44;11.65;;;3.45;;
77040;SDS011;65974;42.664;23.264;2023-02-26T06:50:09;7.68;;;2.40;;
77040;SDS011;65974;42.664;23.264;2023-02-26T06:52:35;15.98;;;3.75;;
77040;SDS011;65974;42.664;23.264;2023-02-26T06:55:01;5.78;;;2.33;;
77040;SDS011;65974;42.664;23.264;2023-02-26T06:57:27;6.25;;;2.80;;
77040;SDS011;65974;42.664;23.264;2023-02-26T06:59:53;15.50;;;2.97;;
77040;SDS011;65974;42.664;23.264;2023-02-26T07:02:19;5.65;;;2.65;;
77040;SDS011;65974;42.664;23.264;2023-02-26T07:04:46;6.20;;;2.10;;
77040;SDS011;65974;42.664;23.264;2023-02-26T07:07:11;4.85;;;2.25;;
77040;SDS011;65974;42.664;23.264;2023-02-26T07:09:37;11.38;;;3.45;;
77040;SDS011;65974;42.664;23.264;2023-02-26T07:12:03;9.90;;;3.00;;
77040;SDS011;65974;42.664;23.264;2023-02-26T07:14:31;9.27;;;2.38;;
77040;SDS011;65974;42.664;23.264;2023-02-26T07:16:56;18.30;;;2.60;;
77040;SDS011;65974;42.664;23.264;2023-02-26T07:19:22;7.03;;;2.60;;
77040;SDS011;65974;42.664;23.264;2023-02-26T07:21:47;7.20;;;3.80;;
77040;SDS011;65974;42.664;23.264;2023-02-26T07:24:13;13.60;;;3.22;;
77040;SDS011;65974;42.664;23.264;2023-02-26T07:26:38;10.68;;;3.85;;
77040;SDS011;65974;42.664;23.264;2023-02-26T07:29:04;17.63;;;3.55;;
77040;SDS011;65974;42.664;23.264;2023-02-26T07:31:29;10.60;;;2.70;;
77040;SDS011;65974;42.664;23.264;2023-02-26T07:33:55;8.73;;;2.63;;
77040;SDS011;65974;42.664;23.264;2023-02-26T07:36:21;9.55;;;2.72;;
77040;SDS011;65974;42.664;23.264;2023-02-26T07:38:46;5.65;;;2.65;;
77040;SDS011;65974;42.664;23.264;2023-02-26T07:41:12;3.55;;;1.60;;
77040;SDS011;65974;42.664;23.264;2023-02-26T07:43:37;8.95;;;2.70;;
77040;SDS011;65974;42.664;23.264;2023-02-26T07:46:03;5.97;;;2.80;;
77040;SDS011;65974;42.664;23.264;2023-02-26T07:48:28;8.25;;;2.40;;
77040;SDS011;65974;42.664;23.264;2023-02-26T07:50:54;7.45;;;2.30;;
77040;SDS011;65974;42.664;23.264;2023-02-26T07:53:20;12.98;;;3.17;;
77040;SDS011;65974;42.664;23.264;2023-02-26T07:55:45;9.02;;;2.75;;
77040;SDS011;65974;42.664;23.264;2023-02-26T07:58:11;5.28;;;2.38;;
77040;SDS011;65974;42.664;23.264;2023-02-26T08:00:36;12.48;;;2.95;;
77040;SDS011;65974;42.664;23.264;2023-02-26T08:03:02;16.75;;;4.18;;
77040;SDS011;65974;42.664;23.264;2023-02-26T08:05:27;13.15;;;2.40;;
77040;SDS011;65974;42.664;23.264;2023-02-26T08:07:53;7.97;;;2.67;;
77040;SDS011;65974;42.664;23.264;2023-02-26T08:10:19;13.50;;;3.08;;
77040;SDS011;65974;42.664;23.264;2023-02-26T08:12:44;12.88;;;3.67;;
77040;SDS011;65974;42.664;23.264;2023-02-26T08:15:10;20.20;;;4.18;;
77040;SDS011;65974;42.664;23.264;2023-02-26T08:17:38;7.50;;;2.30;;
77040;SDS011;65974;42.664;23.264;2023-02-26T08:20:04;11.00;;;3.80;;
77040;SDS011;65974;42.664;23.264;2023-02-26T08:22:30;6.97;;;2.47;;
77040;SDS011;65974;42.664;23.264;2023-02-26T08:24:56;7.35;;;3.08;;
77040;SDS011;65974;42.664;23.264;2023-02-26T08:27:21;13.70;;;4.20;;
77040;SDS011;65974;42.664;23.264;2023-02-26T08:29:47;13.88;;;3.40;;
77040;SDS011;65974;42.664;23.264;2023-02-26T08:32:14;6.10;;;2.40;;
77040;SDS011;65974;42.664;23.264;2023-02-26T08:34:41;11.30;;;3.17;;
77040;SDS011;65974;42.664;23.264;2023-02-26T08:37:07;15.35;;;3.42;;
77040;SDS011;65974;42.664;23.264;2023-02-26T08:39:35;8.88;;;2.58;;
77040;SDS011;65974;42.664;23.264;2023-02-26T08:42:02;11.30;;;3.85;;
77040;SDS011;65974;42.664;23.264;2023-02-26T08:44:32;12.73;;;3.88;;
77040;SDS011;65974;42.664;23.264;2023-02-26T08:46:58;5.75;;;2.38;;
77040;SDS011;65974;42.664;23.264;2023-02-26T08:49:23;12.10;;;2.78;;
77040;SDS011;65974;42.664;23.264;2023-02-26T08:51:48;11.45;;;3.20;;
77040;SDS011;65974;42.664;23.264;2023-02-26T08:54:14;7.60;;;2.67;;
77040;SDS011;65974;42.664;23.264;2023-02-26T08:56:39;9.82;;;3.90;;
77040;SDS011;65974;42.664;23.264;2023-02-26T08:59:05;7.57;;;2.92;;
77040;SDS011;65974;42.664;23.264;2023-02-26T09:01:31;9.10;;;3.05;;
77040;SDS011;65974;42.664;23.264;2023-02-26T09:03:56;12.43;;;2.58;;
77040;SDS011;65974;42.664;23.264;2023-02-26T09:06:21;12.70;;;3.22;;
77040;SDS011;65974;42.664;23.264;2023-02-26T09:08:47;13.73;;;3.40;;
77040;SDS011;65974;42.664;23.264;2023-02-26T09:11:13;9.50;;;3.97;;
77040;SDS011;65974;42.664;23.264;2023-02-26T09:13:38;13.57;;;3.58;;
77040;SDS011;65974;42.664;23.264;2023-02-26T09:16:04;16.88;;;3.50;;
77040;SDS011;65974;42.664;23.264;2023-02-26T09:18:30;12.48;;;3.17;;
77040;SDS011;65974;42.664;23.264;2023-02-26T09:20:55;8.40;;;3.40;;
77040;SDS011;65974;42.664;23.264;2023-02-26T09:23:21;15.40;;;4.18;;
77040;SDS011;65974;42.664;23.264;2023-02-26T09:25:50;12.32;;;3.38;;
77040;SDS011;65974;42.664;23.264;2023-02-26T09:28:18;9.60;;;3.33;;
77040;SDS011;65974;42.664;23.264;2023-02-26T09:30:43;8.65;;;4.40;;
77040;SDS011;65974;42.664;23.264;2023-02-26T09:33:09;16.17;;;6.00;;
77040;SDS011;65974;42.664;23.264;2023-02-26T09:35:34;14.45;;;5.68;;
77040;SDS011;65974;42.664;23.264;2023-02-26T09:38:01;17.42;;;6.07;;
77040;SDS011;65974;42.664;23.264;2023-02-26T09:43:05;16.60;;;6.75;;
77040;SDS011;65974;42.664;23.264;2023-02-26T09:45:40;14.32;;;7.07;;
77040;SDS011;65974;42.664;23.264;2023-02-26T09:48:09;12.40;;;6.05;;
77040;SDS011;65974;42.664;23.264;2023-02-26T09:50:46;17.33;;;6.03;;
77040;SDS011;65974;42.664;23.264;2023-02-26T09:55:47;22.80;;;5.80;;
77040;SDS011;65974;42.664;23.264;2023-02-26T10:12:28;14.23;;;4.40;;
77040;SDS011;65974;42.664;23.264;2023-02-26T10:14:57;7.80;;;2.83;;
77040;SDS011;65974;42.664;23.264;2023-02-26T10:25:46;7.93;;;3.38;;
77040;SDS011;65974;42.664;23.264;2023-02-26T10:34:08;6.18;;;2.92;;
77040;SDS011;65974;42.664;23.264;2023-02-26T10:42:05;11.30;;;2.92;;
77040;SDS011;65974;42.664;23.264;2023-02-26T10:50:38;16.30;;;4.05;;
77040;SDS011;65974;42.664;23.264;2023-02-26T10:53:12;9.52;;;2.88;;
77040;SDS011;65974;42.664;23.264;2023-02-26T10:55:41;11.20;;;3.75;;
77040;SDS011;65974;42.664;23.264;2023-02-26T10:58:16;10.63;;;4.45;;
77040;SDS011;65974;42.664;23.264;2023-02-26T11:00:45;10.65;;;2.92;;
77040;SDS011;65974;42.664;23.264;2023-02-26T11:03:17;14.43;;;5.07;;
77040;SDS011;65974;42.664;23.264;2023-02-26T11:06:06;11.65;;;5.18;;
77040;SDS011;65974;42.664;23.264;2023-02-26T11:08:36;13.48;;;3.78;;
77040;SDS011;65974;42.664;23.264;2023-02-26T11:11:05;9.18;;;3.17;;
77040;SDS011;65974;42.664;23.264;2023-02-26T11:13:32;9.13;;;3.05;;
77040;SDS011;65974;42.664;23.264;2023-02-26T11:16:02;10.35;;;4.15;;
77040;SDS011;65974;42.664;23.264;2023-02-26T11:18:47;10.88;;;4.38;;
77040;SDS011;65974;42.664;23.264;2023-02-26T11:21:29;16.52;;;4.30;;
77040;SDS011;65974;42.664;23.264;2023-02-26T11:24:02;13.73;;;4.90;;
77040;SDS011;65974;42.664;23.264;2023-02-26T11:26:31;10.98;;;3.78;;
77040;SDS011;65974;42.664;23.264;2023-02-26T11:28:59;12.27;;;4.65;;
77040;SDS011;65974;42.664;23.264;2023-02-26T11:31:26;5.63;;;2.78;;
77040;SDS011;65974;42.664;23.264;2023-02-26T11:33:52;8.45;;;2.63;;
77040;SDS011;65974;42.664;23.264;2023-02-26T11:36:24;11.63;;;3.42;;
77040;SDS011;65974;42.664;23.264;2023-02-26T11:38:56;8.88;;;2.92;;
77040;SDS011;65974;42.664;23.264;2023-02-26T11:41:24;11.70;;;4.10;;
77040;SDS011;65974;42.664;23.264;2023-02-26T11:44:14;8.15;;;3.53;;
77040;SDS011;65974;42.664;23.264;2023-02-26T11:46:47;6.95;;;2.75;;
77040;SDS011;65974;42.664;23.264;2023-02-26T11:49:17;13.90;;;2.95;;
77040;SDS011;65974;42.664;23.264;2023-02-26T11:51:46;10.23;;;2.95;;
77040;SDS011;65974;42.664;23.264;2023-02-26T11:54:23;7.60;;;3.00;;
77040;SDS011;65974;42.664;23.264;2023-02-26T11:56:52;6.38;;;2.63;;
77040;SDS011;65974;42.664;23.264;2023-02-26T11:59:25;11.07;;;4.63;;
77040;SDS011;65974;42.664;23.264;2023-02-26T12:01:51;13.55;;;4.47;;
77040;SDS011;65974;42.664;23.264;2023-02-26T12:04:22;11.43;;;4.00;;
77040;SDS011;65974;42.664;23.264;2023-02-26T12:06:49;9.98;;;3.72;;
77040;SDS011;65974;42.664;23.264;2023-02-26T12:09:16;9.43;;;2.97;;
77040;SDS011;65974;42.664;23.264;2023-02-26T12:11:46;9.32;;;2.28;;
77040;SDS011;65974;42.664;23.264;2023-02-26T12:19:30;11.85;;;3.75;;
77040;SDS011;65974;42.664;23.264;2023-02-26T12:22:26;18.33;;;5.30;;
77040;SDS011;65974;42.664;23.264;2023-02-26T12:50:20;10.70;;;3.55;;
77040;SDS011;65974;42.664;23.264;2023-02-26T12:53:19;17.25;;;4.25;;
77040;SDS011;65974;42.664;23.264;2023-02-26T12:58:45;12.13;;;3.97;;
77040;SDS011;65974;42.664;23.264;2023-02-26T13:04:19;9.05;;;3.28;;
77040;SDS011;65974;42.664;23.264;2023-02-26T13:17:44;10.68;;;3.30;;
77040;SDS011;65974;42.664;23.264;2023-02-26T13:20:23;12.27;;;3.72;;
77040;SDS011;65974;42.664;23.264;2023-02-26T13:22:55;10.30;;;3.38;;
77040;SDS011;65974;42.664;23.264;2023-02-26T13:27:59;12.00;;;3.90;;
77040;SDS011;65974;42.664;23.264;2023-02-26T13:30:30;13.63;;;3.85;;
77040;SDS011;65974;42.664;23.264;2023-02-26T13:32:59;11.63;;;5.20;;
77040;SDS011;65974;42.664;23.264;2023-02-26T13:35:33;11.95;;;4.18;;
77040;SDS011;65974;42.664;23.264;2023-02-26T13:38:25;12.25;;;5.50;;
77040;SDS011;65974;42.664;23.264;2023-02-26T13:48:55;7.25;;;3.10;;
77040;SDS011;65974;42.664;23.264;2023-02-26T14:01:49;8.68;;;3.92;;
77040;SDS011;65974;42.664;23.264;2023-02-26T14:14:43;14.45;;;3.63;;
77040;SDS011;65974;42.664;23.264;2023-02-26T14:17:39;13.73;;;3.60;;
77040;SDS011;65974;42.664;23.264;2023-02-26T14:22:46;21.17;;;6.00;;
77040;SDS011;65974;42.664;23.264;2023-02-26T14:30:58;15.18;;;4.22;;
77040;SDS011;65974;42.664;23.264;2023-02-26T14:33:27;15.85;;;3.25;;
77040;SDS011;65974;42.664;23.264;2023-02-26T14:35:54;18.85;;;4.20;;
77040;SDS011;65974;42.664;23.264;2023-02-26T14:38:22;12.68;;;5.03;;
77040;SDS011;65974;42.664;23.264;2023-02-26T14:43:57;15.77;;;4.82;;
77040;SDS011;65974;42.664;23.264;2023-02-26T14:46:26;14.90;;;4.15;;
77040;SDS011;65974;42.664;23.264;2023-02-26T14:48:53;12.13;;;4.60;;
77040;SDS011;65974;42.664;23.264;2023-02-26T15:05:16;11.70;;;3.85;;
77040;SDS011;65974;42.664;23.264;2023-02-26T15:13:34;31.48;;;11.65;;
77040;SDS011;65974;42.664;23.264;2023-02-26T15:21:25;14.45;;;3.33;;
77040;SDS011;65974;42.664;23.264;2023-02-26T15:23:55;17.08;;;4.13;;
77040;SDS011;65974;42.664;23.264;2023-02-26T15:26:29;13.27;;;3.70;;
77040;SDS011;65974;42.664;23.264;2023-02-26T15:28:58;8.88;;;3.45;;
77040;SDS011;65974;42.664;23.264;2023-02-26T15:31:27;9.07;;;3.50;;
77040;SDS011;65974;42.664;23.264;2023-02-26T15:33:57;10.68;;;4.78;;
77040;SDS011;65974;42.664;23.264;2023-02-26T15:36:23;11.27;;;3.45;;
77040;SDS011;65974;42.664;23.264;2023-02-26T15:38:53;13.10;;;3.90;;
77040;SDS011;65974;42.664;23.264;2023-02-26T15:41:21;17.98;;;7.80;;
77040;SDS011;65974;42.664;23.264;2023-02-26T15:43:50;14.77;;;6.00;;
77040;SDS011;65974;42.664;23.264;2023-02-26T15:46:19;21.73;;;6.55;;
77040;SDS011;65974;42.664;23.264;2023-02-26T15:48:51;16.63;;;7.40;;
77040;SDS011;65974;42.664;23.264;2023-02-26T15:51:19;12.95;;;5.32;;
77040;SDS011;65974;42.664;23.264;2023-02-26T15:53:47;12.18;;;4.88;;
77040;SDS011;65974;42.664;23.264;2023-02-26T15:56:25;17.20;;;7.10;;
77040;SDS011;65974;42.664;23.264;2023-02-26T15:58:55;17.77;;;7.03;;
77040;SDS011;65974;42.664;23.264;2023-02-26T16:01:25;16.35;;;6.93;;
77040;SDS011;65974;42.664;23.264;2023-02-26T16:06:30;19.05;;;8.70;;
77040;SDS011;65974;42.664;23.264;2023-02-26T16:08:59;16.25;;;8.35;;
77040;SDS011;65974;42.664;23.264;2023-02-26T16:11:32;16.08;;;8.75;;
77040;SDS011;65974;42.664;23.264;2023-02-26T16:14:01;18.30;;;8.18;;
77040;SDS011;65974;42.664;23.264;2023-02-26T16:16:33;30.00;;;8.02;;
77040;SDS011;65974;42.664;23.264;2023-02-26T16:19:07;18.83;;;10.18;;
77040;SDS011;65974;42.664;23.264;2023-02-26T16:21:37;18.98;;;8.73;;
77040;SDS011;65974;42.664;23.264;2023-02-26T16:24:05;28.02;;;7.40;;
77040;SDS011;65974;42.664;23.264;2023-02-26T16:26:43;20.30;;;6.05;;
77040;SDS011;65974;42.664;23.264;2023-02-26T16:29:23;10.40;;;5.72;;
77040;SDS011;65974;42.664;23.264;2023-02-26T16:31:53;19.85;;;8.13;;
77040;SDS011;65974;42.664;23.264;2023-02-26T16:34:27;22.75;;;7.68;;
77040;SDS011;65974;42.664;23.264;2023-02-26T16:36:58;18.98;;;7.05;;
77040;SDS011;65974;42.664;23.264;2023-02-26T16:42:43;13.88;;;7.68;;
77040;SDS011;65974;42.664;23.264;2023-02-26T16:45:16;11.48;;;6.57;;
77040;SDS011;65974;42.664;23.264;2023-02-26T16:47:45;14.55;;;5.35;;
77040;SDS011;65974;42.664;23.264;2023-02-26T16:50:14;17.23;;;5.93;;
77040;SDS011;65974;42.664;23.264;2023-02-26T16:53:07;18.35;;;7.70;;
77040;SDS011;65974;42.664;23.264;2023-02-26T16:55:34;25.60;;;7.05;;
77040;SDS011;65974;42.664;23.264;2023-02-26T16:58:02;19.52;;;7.22;;
77040;SDS011;65974;42.664;23.264;2023-02-26T17:00:31;22.48;;;7.90;;
77040;SDS011;65974;42.664;23.264;2023-02-26T17:03:02;19.15;;;8.88;;
77040;SDS011;65974;42.664;23.264;2023-02-26T17:05:36;15.93;;;6.40;;
77040;SDS011;65974;42.664;23.264;2023-02-26T17:08:07;17.67;;;7.75;;
77040;SDS011;65974;42.664;23.264;2023-02-26T17:10:44;12.27;;;3.42;;
77040;SDS011;65974;42.664;23.264;2023-02-26T17:15:43;19.23;;;5.90;;
77040;SDS011;65974;42.664;23.264;2023-02-26T17:18:10;18.50;;;5.88;;
77040;SDS011;65974;42.664;23.264;2023-02-26T17:20:36;27.52;;;8.98;;
77040;SDS011;65974;42.664;23.264;2023-02-26T17:23:02;25.98;;;8.35;;
77040;SDS011;65974;42.664;23.264;2023-02-26T17:27:59;16.45;;;5.93;;
77040;SDS011;65974;42.664;23.264;2023-02-26T17:30:26;19.33;;;8.48;;
77040;SDS011;65974;42.664;23.264;2023-02-26T17:32:55;17.23;;;8.30;;
77040;SDS011;65974;42.664;23.264;2023-02-26T17:35:22;19.73;;;8.48;;
77040;SDS011;65974;42.664;23.264;2023-02-26T17:37:47;23.15;;;7.63;;
77040;SDS011;65974;42.664;23.264;2023-02-26T17:40:17;18.67;;;7.13;;
77040;SDS011;65974;42.664;23.264;2023-02-26T17:42:55;17.25;;;5.90;;
77040;SDS011;65974;42.664;23.264;2023-02-26T17:45:22;13.77;;;5.00;;
77040;SDS011;65974;42.664;23.264;2023-02-26T17:47:47;22.70;;;7.63;;
77040;SDS011;65974;42.664;23.264;2023-02-26T17:50:32;13.70;;;6.32;;
77040;SDS011;65974;42.664;23.264;2023-02-26T17:53:04;12.30;;;5.75;;
77040;SDS011;65974;42.664;23.264;2023-02-26T17:55:29;14.32;;;5.35;;
77040;SDS011;65974;42.664;23.264;2023-02-26T17:57:56;16.92;;;5.53;;
77040;SDS011;65974;42.664;23.264;2023-02-26T18:00:22;19.50;;;10.68;;
77040;SDS011;65974;42.664;23.264;2023-02-26T18:02:48;17.27;;;5.97;;
77040;SDS011;65974;42.664;23.264;2023-02-26T18:05:17;15.98;;;5.85;;
77040;SDS011;65974;42.664;23.264;2023-02-26T18:07:44;13.52;;;5.13;;
77040;SDS011;65974;42.664;23.264;2023-02-26T18:10:15;17.17;;;6.28;;
77040;SDS011;65974;42.664;23.264;2023-02-26T18:12:44;16.30;;;5.47;;
77040;SDS011;65974;42.664;23.264;2023-02-26T18:15:09;16.92;;;5.00;;
77040;SDS011;65974;42.664;23.264;2023-02-26T18:17:35;17.27;;;6.57;;
77040;SDS011;65974;42.664;23.264;2023-02-26T18:20:01;22.42;;;10.48;;
77040;SDS011;65974;42.664;23.264;2023-02-26T18:22:26;32.55;;;11.85;;
77040;SDS011;65974;42.664;23.264;2023-02-26T18:24:52;24.58;;;11.45;;
77040;SDS011;65974;42.664;23.264;2023-02-26T18:27:19;18.08;;;6.68;;
77040;SDS011;65974;42.664;23.264;2023-02-26T18:29:47;28.73;;;7.70;;
77040;SDS011;65974;42.664;23.264;2023-02-26T18:32:20;18.23;;;8.10;;